Disclaimer

Please do not use the information listed here in-flight or in-navigation, as they are not provided to us by the airports but are provided by volunteers, so they might be outdated.

Search


Regions


Airport information page

Radio informations:
Tower (TWR) - 118.8 MHz
Automatic Terminal Information Service (ATIS) - 129.275 MHz
MALMO CON - 135.9 MHz

Airport informations:
Latitude: 55° 31' 48.69" N
Longitude: 013° 22' 17.90" E
Elevation: 236 feet - 72 meters
Operating hours: 24 hour operations
Operating agency: Civil government, landing fees and diplomatic clearance may be required
Timezone: UTC+1(+2DT) - Last Sunday in March to last Sunday in October
Fuel: Jet A1, without icing nhibitor.

100/130 MIL Spec, low lead, aviation gasoline (BLUE)

Runway information:
11/29 - 2615 x 75 feet< - >797 x 23 meters
17/35 - 9186 x 148 feet< - >2800 x 45 meters

Recent METARs:
ESMS 151150Z 07007KT 9999 FEW005 BKN014 OVC018 02/01 Q1030 R17/29//95
ESMS 151220Z 07007KT 6000 BR FEW006 OVC012 01/01 Q1030 R17/29//95
ESMS 151250Z 08007KT 7000 -RA FEW005 SCT013 BKN017 01/01 Q1029 RERA R17/29//95

Airport on the map: